Time;durP1;ratioP1;P1;durP2;ratioP2;P2;SDS_P1;SDS_P2;PMS_P1;PMS_P2;Temp;Humidity;BMP_temperature;BMP_pressure;BME280_temperature;BME280_humidity;BME280_pressure;Samples;Min_cycle;Max_cycle;Signal;HPM_P1;HPM_P2
2022/10/04 00:01:47;;;;;;;14.00;5.53;;;;;;;13.40;100.00;102255.53;5033748;28;20038;-52
2022/10/04 00:04:24;;;;;;;17.90;5.90;;;;;;;13.40;100.00;102251.97;5035306;28;20440;-51
2022/10/04 00:07:07;;;;;;;15.43;5.88;;;;;;;13.38;100.00;102254.13;5033354;28;20049;-51
2022/10/04 00:09:42;;;;;;;12.82;5.60;;;;;;;13.38;100.00;102260.41;5035142;28;20096;-52
2022/10/04 00:12:21;;;;;;;22.55;6.20;;;;;;;13.35;100.00;102254.63;5035284;28;20049;-52
2022/10/04 00:14:52;;;;;;;14.30;5.60;;;;;;;13.31;100.00;102250.72;5033804;28;20385;-53
2022/10/04 00:17:28;;;;;;;13.93;5.70;;;;;;;13.29;100.00;102250.16;5033575;28;20050;-52
2022/10/04 00:19:56;;;;;;;14.45;5.63;;;;;;;13.24;100.00;102244.56;5034817;28;20435;-51
2022/10/04 00:22:31;;;;;;;12.95;5.88;;;;;;;13.20;100.00;102241.50;5034736;28;20060;-51
2022/10/04 00:25:12;;;;;;;13.90;5.95;;;;;;;13.18;100.00;102239.03;5006487;28;20096;-51
2022/10/04 00:28:18;;;;;;;12.82;6.28;;;;;;;13.18;100.00;102239.03;5034105;28;20045;-55
2022/10/04 00:31:05;;;;;;;15.68;5.60;;;;;;;13.16;100.00;102235.69;5034147;28;21852;-53
2022/10/04 00:33:41;;;;;;;14.00;5.82;;;;;;;13.15;100.00;102234.03;5033802;28;20049;-51
2022/10/04 00:36:23;;;;;;;18.85;6.00;;;;;;;13.11;100.00;102224.69;5044928;28;20041;-53
2022/10/04 00:39:06;;;;;;;14.32;5.30;;;;;;;13.11;100.00;102226.59;5033586;28;20041;-53
2022/10/04 00:41:49;;;;;;;12.65;5.63;;;;;;;13.09;100.00;102221.38;5035709;28;20045;-50
2022/10/04 00:44:32;;;;;;;15.90;6.07;;;;;;;13.05;100.00;102224.84;5034727;28;20048;-50
2022/10/04 00:47:02;;;;;;;12.73;6.15;;;;;;;13.01;100.00;102221.78;5034494;28;20462;-51
2022/10/04 00:49:34;;;;;;;13.73;7.13;;;;;;;12.99;100.00;102223.94;5034499;28;20044;-57
2022/10/04 00:52:12;;;;;;;14.05;6.03;;;;;;;12.97;100.00;102220.63;5045709;28;20032;-52
2022/10/04 00:54:43;;;;;;;14.40;5.95;;;;;;;12.93;100.00;102220.28;5016281;28;20049;-59
2022/10/04 00:57:15;;;;;;;14.52;6.22;;;;;;;12.95;100.00;102236.47;5031541;28;20038;-51
2022/10/04 00:59:48;;;;;;;12.38;5.57;;;;;;;12.96;100.00;102218.94;5032667;28;20429;-53
2022/10/04 01:02:18;;;;;;;14.18;5.82;;;;;;;12.96;100.00;102218.94;5035578;28;20041;-52
2022/10/04 01:04:50;;;;;;;14.23;5.38;;;;;;;12.95;100.00;102212.66;5026064;28;20050;-52
2022/10/04 01:07:46;;;;;;;16.58;5.55;;;;;;;12.98;100.00;102200.38;5027058;28;20451;-52
2022/10/04 01:10:29;;;;;;;13.07;5.85;;;;;;;13.00;100.00;102196.31;5032253;28;20041;-55
2022/10/04 01:13:13;;;;;;;12.98;5.30;;;;;;;13.04;100.00;102193.09;5033914;28;20086;-55
2022/10/04 01:16:03;;;;;;;14.32;5.80;;;;;;;13.06;100.00;102185.44;5015634;28;20045;-53
2022/10/04 01:18:33;;;;;;;11.80;5.60;;;;;;;13.05;100.00;102179.16;5002103;28;20038;-52
2022/10/04 01:21:20;;;;;;;14.80;6.43;;;;;;;13.05;100.00;102179.16;5028084;28;20042;-51
2022/10/04 01:23:53;;;;;;;14.15;6.05;;;;;;;13.06;100.00;102193.66;5032565;28;20091;-51
2022/10/04 01:26:31;;;;;;;13.95;6.13;;;;;;;13.01;100.00;102188.94;5038890;28;20041;-52
2022/10/04 01:29:09;;;;;;;10.77;5.03;;;;;;;12.98;100.00;102189.44;5034225;28;20136;-52
2022/10/04 01:31:45;;;;;;;12.25;5.50;;;;;;;12.99;100.00;102177.44;5033607;28;20045;-52
2022/10/04 01:34:16;;;;;;;13.27;5.60;;;;;;;12.98;100.00;102184.78;5044564;28;20044;-52
2022/10/04 01:36:45;;;;;;;16.20;5.78;;;;;;;12.99;100.00;102185.66;5035016;28;20088;-52
2022/10/04 01:39:15;;;;;;;12.90;6.20;;;;;;;12.97;100.00;102174.94;5016233;28;20067;-52
2022/10/04 01:41:52;;;;;;;13.38;5.78;;;;;;;12.98;100.00;102173.03;5021524;28;20038;-51
2022/10/04 01:44:31;;;;;;;14.77;5.40;;;;;;;12.97;100.00;102168.66;5047709;28;20392;-52
2022/10/04 01:47:04;;;;;;;12.77;5.82;;;;;;;12.97;100.00;102168.66;5023963;28;20094;-53
2022/10/04 01:49:35;;;;;;;14.20;5.80;;;;;;;12.98;100.00;102165.63;5015638;28;20057;-53
2022/10/04 01:52:21;;;;;;;12.93;5.72;;;;;;;13.00;100.00;102154.47;5015988;28;20044;-53
2022/10/04 01:54:57;;;;;;;15.35;5.57;;;;;;;13.02;100.00;102157.78;5033634;28;20056;-52
2022/10/04 01:57:44;;;;;;;17.58;5.88;;;;;;;13.02;100.00;102157.78;5040975;28;20499;-53
2022/10/04 02:00:13;;;;;;;13.93;5.47;;;;;;;13.01;100.00;102161.56;5044167;28;20042;-52
2022/10/04 02:03:03;;;;;;;18.58;6.25;;;;;;;13.02;100.00;102157.78;5045095;28;20054;-52
2022/10/04 02:05:52;;;;;;;14.20;5.68;;;;;;;13.02;100.00;102155.03;5041735;28;20045;-54
2022/10/04 02:08:28;;;;;;;13.27;5.63;;;;;;;13.05;100.00;102143.59;5037761;28;20060;-52
2022/10/04 02:10:56;;;;;;;16.85;6.22;;;;;;;13.00;100.00;102132.56;5032641;28;20052;-48
2022/10/04 02:13:28;;;;;;;15.48;5.85;;;;;;;12.97;100.00;102133.09;5029819;28;20042;-48
2022/10/04 02:15:57;;;;;;;13.63;5.95;;;;;;;12.94;100.00;102128.94;5033099;28;20048;-53
2022/10/04 02:18:26;;;;;;;11.05;5.70;;;;;;;12.93;100.00;102119.06;5031246;28;20037;-52
2022/10/04 02:20:54;;;;;;;12.80;5.30;;;;;;;12.91;100.00;102107.53;5019421;28;20042;-52
2022/10/04 02:23:22;;;;;;;15.00;6.13;;;;;;;12.88;100.00;102097.13;5031865;28;20049;-52
2022/10/04 02:25:50;;;;;;;13.38;5.80;;;;;;;12.84;100.00;102095.13;5029878;28;20046;-53
2022/10/04 02:28:18;;;;;;;13.77;6.55;;;;;;;12.79;100.00;102098.63;5031431;28;20123;-51
2022/10/04 02:33:42;;;;;;;14.65;5.68;;;;;;;12.76;100.00;102102.69;5027069;28;20515;-52
2022/10/04 02:36:10;;;;;;;17.25;5.82;;;;;;;12.73;100.00;102110.59;5027704;28;20049;-52
2022/10/04 02:38:46;;;;;;;14.13;5.57;;;;;;;12.73;100.00;102102.38;5023175;28;20049;-52
2022/10/04 02:41:24;;;;;;;12.27;5.45;;;;;;;12.74;100.00;102102.09;5026504;28;20041;-53
2022/10/04 02:44:02;;;;;;;12.27;5.18;;;;;;;12.74;100.00;102096.63;5025155;28;20044;-52
2022/10/04 02:46:52;;;;;;;13.05;5.55;;;;;;;12.74;100.00;102088.44;5033591;28;20045;-55
2022/10/04 02:49:40;;;;;;;11.43;5.63;;;;;;;12.70;100.00;102079.09;5029603;28;20442;-51
2022/10/04 02:52:38;;;;;;;12.48;5.72;;;;;;;12.69;100.00;102071.94;5035289;28;20488;-52
2022/10/04 02:55:17;;;;;;;11.27;5.70;;;;;;;12.67;100.00;102065.91;5035466;28;20091;-54
2022/10/04 02:57:45;;;;;;;11.77;5.13;;;;;;;12.65;100.00;102070.81;5036581;28;20045;-51
2022/10/04 03:00:20;;;;;;;15.85;6.10;;;;;;;12.63;100.00;102067.50;5035812;28;20041;-52
2022/10/04 03:03:07;;;;;;;12.90;6.30;;;;;;;12.63;100.00;102062.03;5035247;28;20120;-52
2022/10/04 03:05:35;;;;;;;14.90;5.40;;;;;;;12.62;100.00;102054.06;5036121;28;20041;-53
2022/10/04 03:08:04;;;;;;;17.10;5.68;;;;;;;12.59;100.00;102049.94;5019794;28;20045;-54
2022/10/04 03:10:33;;;;;;;12.48;5.70;;;;;;;12.53;100.00;102045.47;5034280;28;20041;-52
2022/10/04 03:13:01;;;;;;;15.15;5.90;;;;;;;12.49;100.00;102055.25;5034860;28;20091;-53
2022/10/04 03:15:29;;;;;;;12.18;6.20;;;;;;;12.45;100.00;102054.09;5040305;28;20451;-53
2022/10/04 03:17:57;;;;;;;17.55;6.45;;;;;;;12.43;100.00;102045.31;5026986;28;20037;-49
2022/10/04 03:20:25;;;;;;;15.38;6.28;;;;;;;12.42;100.00;102049.97;5034464;28;20041;-53
2022/10/04 03:22:55;;;;;;;15.85;5.75;;;;;;;12.39;100.00;102049.63;5034808;28;20045;-51
2022/10/04 03:25:30;;;;;;;14.00;5.47;;;;;;;12.33;100.00;102046.81;5035389;28;20087;-54
2022/10/04 03:28:02;;;;;;;15.57;5.80;;;;;;;12.31;100.00;102043.53;5034050;28;20042;-53
2022/10/04 03:30:31;;;;;;;11.15;5.45;;;;;;;12.27;100.00;102036.91;5016178;28;20042;-55
2022/10/04 03:32:59;;;;;;;14.05;6.05;;;;;;;12.30;100.00;102041.84;5035565;28;20041;-50
2022/10/04 03:35:35;;;;;;;11.50;5.43;;;;;;;12.28;100.00;102033.06;5037146;28;20037;-51
2022/10/04 03:38:07;;;;;;;12.82;6.38;;;;;;;12.30;100.00;102041.84;5033957;28;20033;-52
2022/10/04 03:40:36;;;;;;;13.88;6.03;;;;;;;12.27;100.00;102042.34;5033548;28;20045;-51
2022/10/04 03:43:05;;;;;;;12.82;6.22;;;;;;;12.26;100.00;102039.88;5034469;28;20041;-51
2022/10/04 03:45:33;;;;;;;11.60;5.20;;;;;;;12.24;100.00;102036.56;5037250;28;20052;-51
2022/10/04 03:48:05;;;;;;;11.75;5.32;;;;;;;12.22;100.00;102034.09;5040618;28;20042;-52
2022/10/04 03:50:43;;;;;;;9.82;5.60;;;;;;;12.23;100.00;102027.53;5034390;28;20033;-52
2022/10/04 03:53:24;;;;;;;11.82;5.30;;;;;;;12.26;100.00;102026.19;5034478;28;20052;-52
2022/10/04 03:55:51;;;;;;;14.73;6.28;;;;;;;12.28;100.00;102027.59;5035298;28;20041;-52
2022/10/04 03:58:20;;;;;;;15.98;6.00;;;;;;;12.30;100.00;102019.16;5033635;28;20045;-52
2022/10/04 04:01:30;;;;;;;14.15;5.50;;;;;;;12.31;100.00;102015.34;5033838;28;20042;-53
2022/10/04 04:04:05;;;;;;;12.85;5.20;;;;;;;12.28;100.00;102005.75;5027717;28;20103;-53
2022/10/04 04:07:12;;;;;;;14.15;5.60;;;;;;;12.21;100.00;102007.00;5033594;28;20523;-52
2022/10/04 04:10:07;;;;;;;19.95;6.20;;;;;;;12.20;100.00;102003.44;5036251;28;20050;-51
2022/10/04 04:12:46;;;;;;;14.57;5.70;;;;;;;12.22;100.00;102006.75;5012523;28;20058;-50
2022/10/04 04:15:15;;;;;;;10.40;5.50;;;;;;;12.19;100.00;101999.03;5027878;28;20038;-49
2022/10/04 04:17:50;;;;;;;13.82;5.22;;;;;;;12.18;100.00;102004.78;5023747;28;20446;-50
2022/10/04 04:20:35;;;;;;;11.80;5.53;;;;;;;12.16;100.00;101996.81;5032637;28;20492;-51
2022/10/04 04:23:18;;;;;;;11.25;5.53;;;;;;;12.12;100.00;102007.44;5033138;28;20037;-57
2022/10/04 04:25:48;;;;;;;13.52;6.03;;;;;;;12.11;100.00;102005.75;5021473;28;20052;-57
2022/10/04 04:28:39;;;;;;;12.25;5.38;;;;;;;12.09;100.00;102007.91;5014445;28;20408;-57
2022/10/04 04:31:20;;;;;;;13.10;5.80;;;;;;;12.08;100.00;102009.00;5029545;28;20033;-53
2022/10/04 04:33:59;;;;;;;12.27;5.97;;;;;;;12.07;100.00;102014.69;5037294;28;20053;-56
2022/10/04 04:36:40;;;;;;;12.85;5.50;;;;;;;12.05;100.00;102016.84;5034887;28;20115;-59
2022/10/04 04:39:39;;;;;;;12.55;5.65;;;;;;;11.99;100.00;102015.13;5033428;28;20389;-57
2022/10/04 04:42:16;;;;;;;13.20;5.35;;;;;;;11.90;100.00;102004.59;5038262;28;20041;-58
2022/10/04 04:44:56;;;;;;;12.13;5.80;;;;;;;11.89;100.00;102008.41;5033360;28;20071;-57
2022/10/04 04:47:49;;;;;;;11.77;5.18;;;;;;;11.91;100.00;102000.81;5034695;28;20045;-56
2022/10/04 04:50:26;;;;;;;12.48;5.50;;;;;;;11.92;100.00;101990.69;5034599;28;20041;-57
2022/10/04 04:52:59;;;;;;;15.18;5.90;;;;;;;11.90;100.00;101999.13;5039208;28;20046;-58
2022/10/04 04:55:43;;;;;;;11.70;5.55;;;;;;;11.86;100.00;101997.97;5034595;28;20369;-56
2022/10/04 04:58:34;;;;;;;12.57;5.85;;;;;;;11.84;100.00;101989.19;5021360;28;20052;-56
2022/10/04 05:01:17;;;;;;;17.73;5.80;;;;;;;11.80;100.00;101982.56;5016523;28;20447;-55
2022/10/04 05:03:58;;;;;;;14.05;5.18;;;;;;;11.77;100.00;101991.25;5032796;28;20068;-57
2022/10/04 05:06:27;;;;;;;10.60;5.25;;;;;;;11.77;100.00;101990.44;5033507;28;20049;-58
2022/10/04 05:08:55;;;;;;;12.80;5.43;;;;;;;11.81;100.00;101984.22;5033387;28;20045;-58
2022/10/04 05:11:30;;;;;;;12.32;5.68;;;;;;;11.86;100.00;101983.50;5034978;28;20053;-56
2022/10/04 05:14:18;;;;;;;12.40;5.22;;;;;;;11.86;100.00;101980.75;5033330;28;20041;-58
2022/10/04 05:16:50;;;;;;;12.95;5.40;;;;;;;11.85;100.00;101982.63;5018525;28;20041;-59
2022/10/04 05:19:35;;;;;;;10.75;5.32;;;;;;;11.87;100.00;101980.53;5032676;28;20510;-56
2022/10/04 05:22:11;;;;;;;10.57;4.85;;;;;;;11.86;100.00;101986.22;5035875;28;20037;-59
2022/10/04 05:24:44;;;;;;;13.43;5.50;;;;;;;11.84;100.00;101986.44;5032444;28;20041;-57
2022/10/04 05:27:38;;;;;;;11.32;5.32;;;;;;;11.85;100.00;101995.47;5032601;28;20488;-55
2022/10/04 05:30:36;;;;;;;11.85;5.30;;;;;;;11.81;100.00;101989.69;5033696;28;20053;-56
2022/10/04 05:33:16;;;;;;;13.10;5.65;;;;;;;11.79;100.00;101989.09;5036656;28;20051;-56
2022/10/04 05:36:09;;;;;;;13.93;5.38;;;;;;;11.78;100.00;101992.88;5033117;28;20432;-57
2022/10/04 05:38:56;;;;;;;14.43;5.40;;;;;;;11.77;100.00;101999.44;5031263;28;20037;-56
2022/10/04 05:41:45;;;;;;;12.57;5.85;;;;;;;11.77;100.00;101999.44;5032266;28;20049;-55
2022/10/04 05:44:45;;;;;;;11.93;6.15;;;;;;;11.74;100.00;102005.41;5032972;28;20103;-56
2022/10/04 05:47:14;;;;;;;9.23;5.18;;;;;;;11.73;100.00;102009.19;5013654;28;20393;-54
2022/10/04 05:49:45;;;;;;;12.32;5.70;;;;;;;11.70;100.00;102012.41;5030683;28;20460;-55
2022/10/04 05:52:15;;;;;;;12.98;5.88;;;;;;;11.70;100.00;102004.22;4998723;28;20038;-54
2022/10/04 05:54:43;;;;;;;11.50;5.55;;;;;;;11.69;100.00;102005.31;5033356;28;20196;-56
2022/10/04 05:57:29;;;;;;;11.95;5.80;;;;;;;11.68;100.00;102006.38;5033453;28;20496;-56
2022/10/04 06:00:22;;;;;;;13.35;5.95;;;;;;;11.67;100.00;102012.91;4334686;28;9999937;-57
2022/10/04 06:02:57;;;;;;;10.93;5.30;;;;;;;11.66;100.00;102014.81;5030011;28;20053;-57
2022/10/04 06:05:43;;;;;;;13.27;5.38;;;;;;;11.66;100.00;102009.34;5016609;28;20116;-54
2022/10/04 06:08:35;;;;;;;13.45;5.78;;;;;;;11.67;100.00;102011.00;5030502;28;20045;-55
2022/10/04 06:11:25;;;;;;;13.25;6.20;;;;;;;11.71;100.00;102011.34;5030766;28;20071;-56
2022/10/04 06:14:19;;;;;;;11.68;5.30;;;;;;;11.73;100.00;102010.00;5037872;28;20412;-54
2022/10/04 06:17:17;;;;;;;12.57;5.35;;;;;;;11.77;100.00;102012.28;5040528;28;20052;-52
2022/10/04 06:20:21;;;;;;;11.05;5.10;;;;;;;11.79;100.00;102007.41;5030321;28;20506;-49
2022/10/04 06:22:58;;;;;;;17.48;5.18;;;;;;;11.79;100.00;102010.94;5038036;28;20099;-53
2022/10/04 06:25:30;;;;;;;11.65;5.68;;;;;;;11.78;100.00;102011.19;5032897;28;20117;-53
2022/10/04 06:28:23;;;;;;;17.42;6.40;;;;;;;11.74;100.00;102005.41;5044545;28;20046;-52
2022/10/04 06:30:56;;;;;;;14.38;5.45;;;;;;;11.70;100.00;102004.22;5039562;28;20061;-54
2022/10/04 06:33:44;;;;;;;11.38;5.55;;;;;;;11.67;100.00;102007.47;5037618;28;20067;-52
2022/10/04 06:36:30;;;;;;;11.82;5.50;;;;;;;11.65;100.00;102001.41;5035609;28;20049;-50
2022/10/04 06:39:08;;;;;;;10.93;5.13;;;;;;;11.71;100.00;102011.34;5037030;28;20087;-51
2022/10/04 06:41:41;;;;;;;13.02;4.70;;;;;;;11.73;100.00;101999.09;5038146;28;20065;-51
2022/10/04 06:44:18;;;;;;;11.07;4.65;;;;;;;11.75;100.00;101996.13;5026191;28;20517;-51
2022/10/04 06:46:45;;;;;;;;;;;;;;;11.77;100.00;101993.16;5039317;28;20086;-49
2022/10/04 06:49:20;;;;;;;11.32;4.88;;;;;;;11.80;100.00;101998.13;5036732;28;20002;-51
2022/10/04 06:51:59;;;;;;;13.32;5.10;;;;;;;11.78;100.00;101979.25;5041811;28;20405;-49
2022/10/04 06:54:45;;;;;;;11.45;4.55;;;;;;;11.79;100.00;101982.81;5036675;28;20060;-51
2022/10/04 06:57:40;;;;;;;9.55;4.82;;;;;;;11.78;100.00;101990.16;5035308;28;20044;-52
2022/10/04 07:00:18;;;;;;;9.95;4.47;;;;;;;11.80;100.00;101992.66;5036362;28;20075;-52
2022/10/04 07:02:48;;;;;;;17.45;5.55;;;;;;;11.81;100.00;101994.28;5050444;28;20049;-53
2022/10/04 07:05:35;;;;;;;9.40;5.13;;;;;;;11.81;100.00;101995.16;5035201;28;20131;-52
2022/10/04 07:08:35;;;;;;;10.85;4.88;;;;;;;11.82;100.00;101991.34;5036238;28;20048;-50
2022/10/04 07:11:29;;;;;;;10.60;4.28;;;;;;;11.84;100.00;101986.44;5021488;28;20400;-50
2022/10/04 07:14:04;;;;;;;11.02;4.75;;;;;;;11.86;100.00;101989.78;5035012;28;20044;-50
2022/10/04 07:16:41;;;;;;;11.00;4.68;;;;;;;11.86;99.99;101987.03;5022277;28;20103;-47
2022/10/04 07:19:27;;;;;;;8.77;4.93;;;;;;;11.87;100.00;101987.88;5036087;28;20041;-51
2022/10/04 07:22:06;;;;;;;17.02;5.20;;;;;;;11.89;100.00;101992.03;5034535;28;20053;-50
2022/10/04 07:25:07;;;;;;;10.63;4.68;;;;;;;11.90;100.00;101987.38;5036091;28;20041;-48
2022/10/04 07:30:57;;;;;;;10.48;4.70;;;;;;;11.91;100.00;101998.06;5035250;28;20042;-50
2022/10/04 07:33:27;;;;;;;13.15;5.20;;;;;;;11.93;100.00;101987.72;5040087;28;20069;-50
2022/10/04 07:36:12;;;;;;;10.20;4.75;;;;;;;11.94;100.00;101983.09;5033788;28;20038;-50
2022/10/04 07:38:51;;;;;;;10.65;4.50;;;;;;;11.97;100.00;101981.75;5034794;28;20049;-51
2022/10/04 07:41:34;;;;;;;9.15;4.53;;;;;;;11.93;99.91;101982.28;5039378;28;20096;-54
2022/10/04 07:44:15;;;;;;;12.75;5.22;;;;;;;11.90;100.00;101988.22;5018356;28;20404;-52
2022/10/04 07:46:45;;;;;;;11.18;5.18;;;;;;;11.91;100.00;101992.59;5042746;28;20076;-51
2022/10/04 07:49:20;;;;;;;11.15;4.93;;;;;;;11.92;100.00;101991.53;5038320;28;20484;-52
2022/10/04 07:52:09;;;;;;;11.30;3.90;;;;;;;12.00;100.00;101993.03;5036293;28;20381;-48
2022/10/04 07:55:04;;;;;;;8.43;4.20;;;;;;;12.06;100.00;101994.75;5036350;28;20037;-48
2022/10/04 07:58:00;;;;;;;13.00;4.77;;;;;;;12.11;100.00;101988.53;5030478;28;20041;-52
2022/10/04 08:00:37;;;;;;;10.48;4.03;;;;;;;12.15;100.00;102000.63;5042989;28;20084;-50
2022/10/04 08:03:42;;;;;;;9.90;3.92;;;;;;;12.20;100.00;101997.16;5034774;28;20088;-50
2022/10/04 08:06:19;;;;;;;10.82;4.50;;;;;;;12.23;100.00;101997.47;5035918;28;20065;-50
2022/10/04 08:09:08;;;;;;;9.60;4.38;;;;;;;12.26;100.00;101979.75;5031326;28;20091;-52
2022/10/04 08:11:42;;;;;;;9.18;4.68;;;;;;;12.33;100.00;101975.75;5036446;28;20045;-50
2022/10/04 08:14:22;;;;;;;7.78;4.30;;;;;;;12.33;100.00;101981.22;5035847;28;20041;-50
2022/10/04 08:16:56;;;;;;;10.13;4.13;;;;;;;12.35;100.00;101979.06;5053004;28;20053;-53
2022/10/04 08:19:46;;;;;;;12.30;4.60;;;;;;;12.36;100.00;101975.28;5036168;28;20053;-51
2022/10/04 08:22:19;;;;;;;13.90;5.22;;;;;;;12.35;100.00;101972.78;5033634;28;20046;-53
2022/10/04 08:25:13;;;;;;;13.68;5.53;;;;;;;12.34;100.00;101965.66;5022022;28;20091;-50
2022/10/04 08:29:41;;;;;;;15.02;5.38;;;;;;;12.33;100.00;101978.47;5033566;28;20049;-53
2022/10/04 08:30:49;;;;;;;15.88;5.28;;;;;;;12.35;100.00;101978.25;5052683;28;20511;-50
2022/10/04 08:33:50;;;;;;;11.93;4.95;;;;;;;12.42;100.00;101976.16;5029047;28;20068;-51
2022/10/04 08:36:45;;;;;;;10.90;4.93;;;;;;;12.50;100.00;101983.09;5035229;28;20037;-53
2022/10/04 08:39:40;;;;;;;12.05;4.93;;;;;;;12.52;99.69;101975.47;5033206;28;20041;-52
2022/10/04 08:42:26;;;;;;;10.17;4.60;;;;;;;12.57;99.91;101981.00;5035500;28;20052;-50
2022/10/04 08:45:37;;;;;;;10.27;4.72;;;;;;;12.61;99.66;101981.34;5032698;28;20053;-51
2022/10/04 08:48:21;;;;;;;11.23;4.20;;;;;;;12.70;100.00;101983.38;5031787;28;20052;-50
2022/10/04 08:51:01;;;;;;;12.98;5.28;;;;;;;12.65;99.39;101982.47;5038608;28;20365;-48
2022/10/04 08:53:47;;;;;;;12.80;5.28;;;;;;;12.63;99.33;101985.47;5052701;28;20037;-52
2022/10/04 08:56:49;;;;;;;13.80;6.03;;;;;;;12.64;99.90;101992.59;5036295;28;20401;-48
2022/10/04 08:59:56;;;;;;;11.80;5.70;;;;;;;12.64;99.90;101992.59;5032815;28;20400;-50
2022/10/04 09:02:43;;;;;;;15.30;6.57;;;;;;;12.67;99.60;101991.25;5033529;28;20056;-52
2022/10/04 09:05:20;;;;;;;15.10;6.65;;;;;;;12.69;99.68;101978.97;5034142;28;20041;-52
2022/10/04 09:08:25;;;;;;;14.10;6.57;;;;;;;12.71;98.96;101971.34;5043141;28;20514;-54
2022/10/04 09:11:40;;;;;;;17.75;8.77;;;;;;;12.76;99.87;101971.41;5034175;28;20451;-54
2022/10/04 09:14:26;;;;;;;12.30;5.60;;;;;;;12.81;99.32;101981.59;5035338;28;20084;-50
2022/10/04 09:17:20;;;;;;;13.90;6.72;;;;;;;12.86;98.62;101989.03;5028461;28;20033;-52
2022/10/04 09:20:01;;;;;;;18.13;6.68;;;;;;;12.86;98.54;101989.84;5024027;28;20695;-54
2022/10/04 09:22:58;;;;;;;16.17;6.65;;;;;;;12.89;99.11;101983.91;5011679;28;20100;-56
2022/10/04 09:25:47;;;;;;;15.50;6.90;;;;;;;12.92;98.88;101971.63;5044405;28;20045;-51
2022/10/04 09:28:33;;;;;;;14.25;7.10;;;;;;;12.94;98.56;101964.81;5032901;28;20041;-51
2022/10/04 09:31:21;;;;;;;14.75;7.15;;;;;;;12.97;98.17;101974.41;5024794;28;20052;-50
2022/10/04 09:34:00;;;;;;;12.75;6.75;;;;;;;12.99;98.24;101969.50;5023889;28;20046;-52
2022/10/04 09:36:53;;;;;;;14.75;6.90;;;;;;;13.03;97.61;101970.63;5033989;28;20503;-51
2022/10/04 09:39:45;;;;;;;17.25;7.38;;;;;;;13.07;97.52;101962.75;5033386;28;20458;-50
2022/10/04 09:42:31;;;;;;;13.63;6.68;;;;;;;13.10;97.07;101965.78;5031990;28;20049;-51
2022/10/04 09:45:26;;;;;;;16.58;7.57;;;;;;;13.15;96.83;101965.84;5032550;28;20504;-54
2022/10/04 09:48:17;;;;;;;17.85;7.07;;;;;;;13.19;96.66;101966.97;5025757;28;20049;-52
2022/10/04 09:51:09;;;;;;;12.57;6.60;;;;;;;13.22;96.13;101961.00;5031072;28;20046;-51
2022/10/04 09:53:52;;;;;;;16.42;7.00;;;;;;;13.25;95.46;101958.81;5027660;28;20042;-51
2022/10/04 09:56:35;;;;;;;15.23;7.22;;;;;;;13.27;95.17;101962.13;5044983;28;20048;-51
2022/10/04 09:59:40;;;;;;;15.38;7.57;;;;;;;13.32;96.06;101963.03;5037785;28;20048;-53
2022/10/04 10:02:28;;;;;;;16.25;7.20;;;;;;;13.37;95.01;101968.59;5033185;28;20092;-52
2022/10/04 10:05:27;;;;;;;15.48;7.00;;;;;;;13.43;94.57;101966.72;5039698;28;20037;-51
2022/10/04 10:08:35;;;;;;;18.33;7.40;;;;;;;13.51;94.63;101954.47;5034010;28;20076;-50
2022/10/04 10:14:35;;;;;;;26.58;12.15;;;;;;;13.63;96.29;101953.19;5031270;28;20365;-53
2022/10/04 10:17:24;;;;;;;26.35;10.10;;;;;;;13.67;96.71;101949.94;5022599;28;20037;-54
2022/10/04 10:20:02;;;;;;;26.15;12.82;;;;;;;13.71;97.11;101945.59;5031189;28;20034;-51
2022/10/04 10:22:59;;;;;;;39.08;15.85;;;;;;;13.84;100.00;101950.63;5028540;28;20041;-51
2022/10/04 10:26:03;;;;;;;38.20;16.67;;;;;;;13.92;99.07;101935.63;5027740;28;20077;-51
2022/10/04 10:29:01;;;;;;;15.05;6.95;;;;;;;13.86;94.90;101940.25;4339169;28;10000727;-53
2022/10/04 10:31:43;;;;;;;19.90;8.50;;;;;;;13.88;96.02;101940.81;5048056;28;20037;-52
2022/10/04 10:34:28;;;;;;;23.20;8.98;;;;;;;13.88;94.76;101934.47;5036159;28;20124;-50
2022/10/04 10:37:04;;;;;;;16.02;6.35;;;;;;;13.89;93.74;101934.22;5017655;28;20076;-50
2022/10/04 10:39:32;;;;;;;;;;;;;;;13.94;94.68;101938.91;5040121;28;20057;-53
2022/10/04 10:42:42;;;;;;;13.35;6.80;;;;;;;13.99;94.21;101939.78;5036968;28;19921;-53
2022/10/04 10:45:55;;;;;;;31.88;14.15;;;;;;;14.10;98.61;101931.66;5032080;28;20041;-52
2022/10/04 10:48:31;;;;;;;17.20;7.57;;;;;;;14.18;97.55;101939.34;5028057;28;20045;-53
2022/10/04 10:51:01;;;;;;;;;;;;;;;14.19;97.44;101946.47;5025211;28;20041;-49
2022/10/04 10:53:51;;;;;;;23.35;7.07;;;;;;;14.14;93.67;101955.53;5050224;28;19932;-52
2022/10/04 10:56:29;;;;;;;13.18;5.32;;;;;;;14.10;91.78;101962.59;5029214;28;20045;-51
2022/10/04 10:59:08;;;;;;;14.30;5.70;;;;;;;14.12;91.60;101965.06;5028752;28;20044;-51
2022/10/04 11:02:04;;;;;;;13.07;5.57;;;;;;;14.14;91.14;101949.19;5023992;28;20057;-51
2022/10/04 11:04:38;;;;;;;13.32;5.68;;;;;;;14.18;90.81;101942.09;5030636;28;20045;-54
2022/10/04 11:07:36;;;;;;;16.27;5.95;;;;;;;14.24;92.25;101932.81;5028295;28;20069;-51
2022/10/04 11:10:33;;;;;;;19.38;7.88;;;;;;;14.30;93.58;101930.94;5033432;28;20057;-50
2022/10/04 11:13:17;;;;;;;17.25;6.72;;;;;;;14.31;91.99;101933.41;5060746;28;20052;-54
2022/10/04 11:16:35;;;;;;;10.82;4.90;;;;;;;14.32;91.27;101915.88;5029454;28;20045;-52
2022/10/04 11:19:28;;;;;;;18.58;7.40;;;;;;;14.45;92.90;101911.81;5039803;28;20064;-53
2022/10/04 11:22:17;;;;;;;17.15;7.55;;;;;;;14.52;92.28;101922.53;5046465;28;20103;-54
2022/10/04 11:24:45;;;;;;;17.95;7.63;;;;;;;14.53;90.23;101914.06;5032781;28;20507;-49
2022/10/04 11:27:16;;;;;;;14.73;6.90;;;;;;;14.54;90.25;101914.91;5033448;28;20049;-53
2022/10/04 11:30:12;;;;;;;21.50;8.65;;;;;;;14.61;93.55;101910.00;5030006;28;20037;-49
2022/10/04 11:32:59;;;;;;;15.70;6.57;;;;;;;14.62;91.09;101886.94;5033896;28;20045;-51
2022/10/04 11:35:39;;;;;;;12.43;6.05;;;;;;;14.64;89.41;101890.25;5035423;28;20519;-52
2022/10/04 11:38:19;;;;;;;11.73;5.00;;;;;;;14.66;88.59;101886.13;5033251;28;20041;-51
2022/10/04 11:40:57;;;;;;;11.73;5.43;;;;;;;14.67;86.64;101884.22;5032740;28;20037;-52
2022/10/04 11:44:02;;;;;;;14.35;5.57;;;;;;;14.71;86.00;101888.06;5040053;28;20073;-51
2022/10/04 11:46:37;;;;;;;12.48;5.68;;;;;;;14.81;85.70;101871.63;5033114;28;20049;-52
2022/10/04 11:49:42;;;;;;;14.75;6.13;;;;;;;14.93;89.83;101878.81;5039994;28;20113;-49
2022/10/04 11:52:25;;;;;;;14.80;5.95;;;;;;;14.96;85.90;101878.25;5032282;28;20046;-54
2022/10/04 11:55:29;;;;;;;12.95;6.05;;;;;;;15.04;86.45;101875.00;5031187;28;20089;-53
2022/10/04 11:58:16;;;;;;;11.63;4.70;;;;;;;15.04;84.56;101869.50;5032059;28;20041;-51
2022/10/04 12:01:15;;;;;;;17.08;7.35;;;;;;;15.06;87.19;101870.88;5047329;28;20518;-50
2022/10/04 12:04:04;;;;;;;13.15;5.72;;;;;;;15.07;82.44;101877.19;5033159;28;20551;-51
2022/10/04 12:07:08;;;;;;;20.27;7.63;;;;;;;15.14;85.85;101872.25;5030168;28;20057;-52
2022/10/04 12:09:52;;;;;;;13.55;6.00;;;;;;;15.14;82.45;101872.25;5044202;28;20064;-52
2022/10/04 12:12:38;;;;;;;18.92;9.07;;;;;;;15.21;90.04;101870.06;5040862;28;20064;-51
2022/10/04 12:15:26;;;;;;;13.55;4.70;;;;;;;15.19;80.58;101866.75;5028936;28;20037;-52
2022/10/04 12:18:27;;;;;;;13.00;4.90;;;;;;;15.19;81.86;101866.75;5028897;28;20122;-53
2022/10/04 12:21:33;;;;;;;12.00;5.15;;;;;;;15.19;82.73;101864.00;5038282;28;20056;-55
2022/10/04 12:24:08;;;;;;;10.82;4.90;;;;;;;15.18;82.27;101864.31;5030352;28;20037;-51
2022/10/04 12:27:13;;;;;;;10.18;4.65;;;;;;;15.19;84.37;101865.94;5030897;28;20064;-60
2022/10/04 12:30:21;;;;;;;12.05;5.30;;;;;;;15.21;85.09;101859.06;5022527;28;20053;-53
2022/10/04 12:33:10;;;;;;;14.07;5.60;;;;;;;15.20;83.12;101851.94;5031438;28;20050;-50